Nearby METAR Reports

KBED - Bedford,MA, USA
Distance from station: S 11mi, 18km
Updated: Wed, 16-Jun-2021 5:51am EDT
Clear
Clear
 Wind from NW
Wind: NW 8 mph , 13 km/h
Temperature: 57°F , 14°C
Dew Point: 52°F , 11°C
Humidity: 82%
Barometer: 29.71 inHg , 1006.1 hPa
Clouds: Clear
Visibility: 10 miles , 16 km
2021/06/16 09:51 KBED 160951Z AUTO 31007KT 10SM CLR 14/11 A2971 RMK AO2 SLP072 T01390111
KLWM - Lawrence,MA, USA
Distance from station: ENE 12mi, 19km
Updated: Wed, 16-Jun-2021 5:54am EDT
Mostly Cloudy
Mostly Cloudy
 Wind from calm
Wind: Calm
Temperature: 57°F , 14°C
Dew Point: 54°F , 12°C
Humidity: 88%
Barometer: 29.74 inHg , 1007.1 hPa
Clouds: Mostly Cloudy
Visibility: 10 miles , 16 km
Cloud details: Mostly Cloudy 4600 ft
2021/06/16 09:54 KLWM 160954Z AUTO 00000KT 10SM BKN046 14/12 A2974 RMK AO2 SLP069 T01440117
 
KASH - Nashua,NH, USA
Distance from station: NW 14mi, 23km
Updated: Wed, 16-Jun-2021 5:56am EDT
Clear
Clear
 Wind from NW
Wind: NW 7 mph , 11 km/h
Temperature: 59°F , 15°C
Dew Point: 52°F , 11°C
Humidity: 77%
Barometer: 29.74 inHg , 1007.1 hPa
Clouds: Clear
Visibility: 10 miles , 16 km
2021/06/16 09:56 KASH 160956Z AUTO 31006KT 10SM CLR 15/11 A2974 RMK AO2 SLP076 T01500106 PNO $
KFIT - Fitchburg, MA, USA
Distance from station: WSW 22mi, 35km
Updated: Wed, 16-Jun-2021 5:52am EDT
Clear
Clear
 Wind from WNW
Wind: WNW 5 mph , 7 km/h
Temperature: 59°F , 15°C
Dew Point: 48°F , 9°C
Humidity: 68%
Barometer: 29.75 inHg , 1007.5 hPa
Clouds: Clear
Visibility: 10 miles , 16 km
2021/06/16 09:52 KFIT 160952Z AUTO 30004KT 10SM CLR 15/09 A2975 RMK AO2 SLP072 T01500089 TSNO PNO $

Metar display script from Saratoga-Weather.org